Latest Coastal Weather Observations for Kalumburu

IDW60701

Issued at 2:33 am WST Monday 20 February 2017 (issued every 10 minutes, with the page automatically refreshed every 10 minutes)

About coastal observations | Map of coastal stations | Coastal observations for WA | Marine services | Other Formats
Station Details ID: 001019 Name: KALUMBURU Lat: -14.30 Lon: 126.65 Height: 23.0 m
Data from the previous 72 hours. | See also: Recent months at Kalumburu
Date/Time
WST
Temp
°C
Wind Pressure Rain since
9am
mm
Weather Cloud Vis
km
Sea
Height
m
Swell
Dir  Spd
kts
Gust
kts
hPa Trend Height
m
Period
s
Dir
20/02:30am 24.3 CALM 0 0 1007.5 - 0.0 - - - - - - -
20/02:00am 24.3 CALM 0 0 1007.6 - 0.0 - - - - - - -
20/01:30am 24.1 CALM 0 0 1007.8 - 0.0 - - - - - - -
20/01:00am 24.5 CALM 0 0 1008.2 - 0.0 - - - - - - -
20/12:30am 24.4 CALM 0 0 1008.2 - 0.0 - - - - - - -
20/12:00am 24.7 CALM 0 0 1008.5 - 0.0 - - - - - - -
 
Date/Time
WST
Temp
°C
Wind Pressure Rain since
9am
mm
Weather Cloud Vis
km
Sea
Height
m
Swell
Dir  Spd
kts
Gust
kts
hPa Trend Height
m
Period
s
Dir
19/11:30pm 24.9 CALM 0 0 1008.7 - 0.0 - - - - - - -
19/11:00pm 25.0 S 3 4 1009.0 - 0.0 - - - - - - -
19/10:30pm 25.1 CALM 0 0 1009.4 - 0.0 - - - - - - -
19/10:00pm 25.2 SSE 1 4 1009.6 - 0.0 - - - - - - -
19/09:30pm 25.8 CALM 0 0 1009.6 - 0.0 - - - - - - -
19/09:00pm 25.8 CALM 0 0 1009.5 - 0.0 - - - - - - -
19/08:30pm 25.8 SSW 1 4 1009.2 - 0.0 - - - - - - -
19/08:00pm 25.8 CALM 0 0 1008.7 - 0.0 - - - - - - -
19/07:30pm 26.0 CALM 0 0 1008.3 - 0.0 - - - - - - -
19/07:00pm 26.4 CALM 0 0 1008.0 - 0.0 - - - - - - -
19/06:30pm 26.6 CALM 0 0 1007.9 - 0.0 - - - - - - -
19/06:00pm 27.6 NNW 3 5 1007.4 - 0.0 - - - - - - -
19/05:30pm 28.3 NW 4 5 1007.3 - 0.0 - - - - - - -
19/05:00pm 28.6 NW 4 7 1007.2 - 0.0 - - - - - - -
19/04:30pm 29.0 W 3 6 1007.2 - 0.0 - - - - - - -
19/04:00pm 29.3 WNW 5 7 1007.0 - 0.0 - - - - - - -
19/03:30pm 29.6 WNW 5 7 1006.7 - 0.0 - - - - - - -
19/03:00pm 30.0 N 1 5 1007.1 - 0.0 - - - - - - -
19/02:30pm 29.8 SSE 3 4 1007.3 - 0.0 - - - - - - -
19/02:00pm 29.4 S 1 4 1007.6 - 0.0 - - - - - - -
19/01:30pm 28.2 S 7 11 1008.1 - 0.0 - - - - - - -
19/01:00pm 29.0 SSW 5 6 1007.9 - 0.0 - - - - - - -
19/12:30pm 28.6 WSW 4 6 1008.1 - 0.0 - - - - - - -
19/12:00pm 27.9 S 4 8 1008.8 - 0.0 - - - - - - -
19/11:30am 27.9 SSE 6 9 1009.5 - 0.0 - - - - - - -
19/11:00am 28.4 S 6 10 1009.5 - 0.0 - - - - - - -
19/10:30am 29.6 SSE 6 9 1009.7 - 0.0 - - - - - - -
19/10:00am 29.4 SSE 5 7 1010.5 - 0.0 - - - - - - -
19/09:30am 30.3 SSE 8 15 1011.2 - 0.0 - - - - - - -
19/09:00am 30.3 S 6 10 1011.2 - 0.0 - - - - - - -
19/08:30am 30.1 SW 6 9 1010.5 - 0.0 - - - - - - -
19/08:00am 30.1 W 6 9 1009.6 - 0.0 - - - - - - -
19/07:30am 29.1 SSW 1 4 1009.5 - 0.0 - - - - - - -
19/07:00am 27.7 CALM 0 3 1009.7 - 0.0 - - - - - - -
19/06:30am 26.7 CALM 0 3 1009.2 - 0.0 - - - - - - -
19/06:00am 25.6 CALM 0 0 1008.8 - 0.0 - - - - - - -
19/05:30am 25.8 CALM 0 0 1008.3 - 0.0 - - - - - - -
19/05:00am 25.7 SSW 3 4 1008.0 - 0.0 - - - - - - -
19/04:30am 25.4 W 2 5 1007.7 - 0.0 - - - - - - -
19/04:00am 25.0 CALM 0 0 1007.8 - 0.0 - - - - - - -
19/03:30am 24.7 SE 3 4 1008.0 - 0.0 - - - - - - -
19/03:00am 24.9 S 1 3 1007.5 - 0.0 - - - - - - -
19/02:30am 25.5 NW 3 5 1007.2 - 0.0 - - - - - - -
19/02:00am 25.9 WNW 4 6 1007.5 - 0.0 - - - - - - -
19/01:30am 26.1 WNW 3 4 1007.8 - 0.0 - - - - - - -
19/01:00am 26.1 WNW 4 5 1008.3 - 0.0 - - - - - - -
19/12:30am 25.8 W 1 4 1008.9 - 0.0 - - - - - - -
19/12:00am 25.6 CALM 0 0 1009.1 - 0.0 - - - - - - -
 
Date/Time
WST
Temp
°C
Wind Pressure Rain since
9am
mm
Weather Cloud Vis
km
Sea
Height
m
Swell
Dir  Spd
kts
Gust
kts
hPa Trend Height
m
Period
s
Dir
18/11:30pm 25.8 SSE 3 6 1009.8 - 0.0 - - - - - - -
18/11:00pm 26.0 S 4 6 1010.0 - 0.0 - - - - - - -
18/10:30pm 25.8 CALM 0 0 1010.0 - 0.0 - - - - - - -
18/10:00pm 26.0 CALM 0 0 1009.8 - 0.0 - - - - - - -
18/09:30pm 26.0 NE 2 4 1009.4 - 0.0 - - - - - - -
18/09:00pm 26.2 E 1 3 1009.4 - 0.0 - - - - - - -
18/08:30pm 26.8 SW 3 5 1009.3 - 0.0 - - - - - - -
18/08:00pm 27.0 SSW 4 5 1009.6 - 0.0 - - - - - - -
18/07:30pm 27.6 SSW 5 8 1009.1 - 0.0 - - - - - - -
18/07:00pm 28.8 W 3 6 1008.5 - 0.0 - - - - - - -
18/06:30pm 29.7 WSW 4 7 1008.7 - 0.0 - - - - - - -
18/06:00pm 29.9 NW 6 11 1008.3 - 0.0 - - - - - - -
18/05:30pm 30.6 NW 7 13 1008.0 - 0.0 - - - - - - -
18/05:00pm 31.6 WNW 8 13 1007.4 - 0.0 - - - - - - -
18/04:30pm 32.6 NW 8 13 1007.1 - 0.0 - - - - - - -
18/04:00pm 33.2 WNW 7 11 1006.9 - 0.0 - - - - - - -
18/03:30pm 33.6 NW 9 13 1007.0 - 0.0 - - - - - - -
18/03:00pm 34.2 WNW 4 10 1007.3 - 0.0 - - - - - - -
18/02:30pm 35.7 WSW 4 6 1007.6 - 0.0 - - - - - - -
18/02:00pm 34.0 SW 4 6 1007.8 - 0.0 - - - - - - -
18/01:30pm 33.9 NW 5 8 1008.1 - 0.0 - - - - - - -
18/01:00pm 33.9 WSW 4 8 1008.3 - 0.0 - - - - - - -
18/12:30pm 33.5 WNW 6 9 1008.7 - 0.0 - - - - - - -
18/12:00pm 33.4 W 4 7 1009.3 - 0.0 - - - - - - -
18/11:30am 32.7 WNW 5 9 1010.0 - 0.0 - - - - - - -
18/11:00am 32.8 SW 2 5 1010.5 - 0.0 - - - - - - -
18/10:30am 31.5 SE 4 6 1011.2 - 0.0 - - - - - - -
18/10:00am 31.8 SSE 5 8 1011.1 - 0.0 - - - - - - -
18/09:30am 31.4 WSW 5 9 1011.2 - 0.0 - - - - - - -
18/09:00am 30.7 SW 5 8 1011.0 - 0.0 - - - - - - -
18/08:30am 30.2 SW 5 8 1011.2 - 0.0 - - - - - - -
18/08:00am 29.3 WSW 4 7 1011.2 - 0.0 - - - - - - -
18/07:30am 28.1 SW 5 7 1011.3 - 0.0 - - - - - - -
18/07:00am 27.4 SSW 1 4 1011.1 - 0.0 - - - - - - -
18/06:30am 26.4 W 3 5 1010.9 - 0.0 - - - - - - -
18/06:00am 25.0 CALM 0 0 1011.0 - 0.0 - - - - - - -
18/05:30am 24.6 CALM 0 0 1011.0 - 0.0 - - - - - - -
18/05:00am 24.6 CALM 0 0 1010.7 - 0.0 - - - - - - -
18/04:30am 24.6 S 1 3 1010.5 - 0.0 - - - - - - -
18/04:00am 24.7 CALM 0 0 1010.3 - 0.0 - - - - - - -
18/03:30am 24.8 CALM 0 0 1010.2 - 0.0 - - - - - - -
18/03:00am 24.9 CALM 0 0 1010.0 - 0.0 - - - - - - -
18/02:30am 25.1 CALM 0 0 1010.0 - 0.0 - - - - - - -
18/02:00am 25.4 CALM 0 0 1009.9 - 0.0 - - - - - - -
18/01:30am 26.2 WSW 2 4 1010.0 - 0.0 - - - - - - -
18/01:00am 25.9 CALM 0 3 1009.8 - 0.0 - - - - - - -
18/12:30am 26.5 WNW 4 5 1010.0 - 0.0 - - - - - - -
18/12:00am 25.6 WNW 1 4 1010.4 - 0.0 - - - - - - -
 
Date/Time
WST
Temp
°C
Wind Pressure Rain since
9am
mm
Weather Cloud Vis
km
Sea
Height
m
Swell
Dir  Spd
kts
Gust
kts
hPa Trend Height
m
Period
s
Dir
17/11:30pm 26.0 CALM 0 0 1010.7 - 0.0 - - - - - - -
17/11:00pm 26.6 NW 3 5 1010.8 - 0.0 - - - - - - -
17/10:30pm 26.6 NW 3 5 1010.9 - 0.0 - - - - - - -
17/10:00pm 26.9 WNW 3 7 1011.1 - 0.0 - - - - - - -
17/09:30pm 26.7 WNW 2 4 1011.0 - 0.0 - - - - - - -
17/09:00pm 27.1 NW 4 5 1010.7 - 0.0 - - - - - - -
17/08:30pm 27.5 WNW 4 6 1010.5 - 0.0 - - - - - - -
17/08:00pm 27.7 WNW 4 6 1010.1 - 0.0 - - - - - - -
17/07:30pm 28.0 NW 4 8 1009.8 - 0.0 - - - - - - -
17/07:00pm 28.4 NW 4 6 1009.6 - 0.0 - - - - - - -
17/06:30pm 28.8 WNW 5 8 1009.2 - 0.0 - - - - - - -
17/06:00pm 29.3 NW 5 10 1008.7 - 0.0 - - - - - - -
17/05:30pm 30.2 NW 8 11 1008.3 - 0.0 - - - - - - -
17/05:00pm 31.4 WNW 7 11 1008.0 - 0.0 - - - - - - -
17/04:30pm 31.8 NW 8 12 1007.9 - 0.0 - - - - - - -
17/04:00pm 32.2 WNW 8 14 1007.9 - 0.0 - - - - - - -
17/03:30pm 32.1 WNW 9 15 1008.3 - 0.0 - - - - - - -
17/03:00pm 32.9 NW 8 11 1008.6 - 0.0 - - - - - - -
17/02:30pm 33.3 NW 9 13 1008.7 - 0.0 - - - - - - -
17/02:00pm 33.2 NW 8 13 1008.9 - 0.0 - - - - - - -
17/01:30pm 33.5 WNW 7 12 1009.0 - 0.0 - - - - - - -
17/01:00pm 33.7 WNW 6 10 1009.3 - 0.0 - - - - - - -
17/12:30pm 33.4 W 6 11 1009.6 - 0.0 - - - - - - -
17/12:00pm 32.8 WNW 6 9 1010.0 - 0.0 - - - - - - -
17/11:30am 33.6 W 5 11 1010.3 - 0.0 - - - - - - -
17/11:00am 32.6 WNW 7 12 1010.8 - 0.0 - - - - - - -
17/10:30am 31.8 W 5 10 1011.0 - 0.0 - - - - - - -
17/10:00am 31.3 W 5 8 1011.2 - 0.0 - - - - - - -
17/09:30am 31.3 WNW 5 8 1011.3 - 0.0 - - - - - - -
17/09:00am 30.6 WNW 5 9 1011.5 - 0.0 - - - - - - -
17/08:30am 30.3 W 5 8 1011.6 - - - - - - - - -
17/08:00am 29.1 WNW 5 7 1011.4 - - - - - - - - -
17/07:30am 28.2 WNW 4 7 1011.0 - - - - - - - - -
17/07:00am 27.3 CALM 0 0 1010.8 - - - - - - - - -
17/06:30am 25.8 CALM 0 0 1010.4 - - - - - - - - -
17/06:00am 24.5 CALM 0 0 1010.3 - - - - - - - - -
17/05:30am 24.1 CALM 0 0 1009.9 - - - - - - - - -
17/05:00am 24.1 CALM 0 0 1009.8 - - - - - - - - -
17/04:30am 24.2 CALM 0 0 1009.6 - - - - - - - - -
17/04:00am 24.3 CALM 0 0 1009.3 - - - - - - - - -
17/03:30am 24.4 CALM 0 0 1009.3 - - - - - - - - -
17/03:00am 24.4 CALM 0 0 1009.2 - - - - - - - - -

Other Formats:

Comma delimited format used in spreadsheet applications
http://www.bom.gov.au/fwo/IDW60701/IDW60701.94100.axf

JavaScript Object Notation format (JSON) in row-major order
http://www.bom.gov.au/fwo/IDW60701/IDW60701.94100.json